Time;durP1;ratioP1;P1;durP2;ratioP2;P2;SDS_P1;SDS_P2;PMS_P1;PMS_P2;Temp;Humidity;BMP_temperature;BMP_pressure;BME280_temperature;BME280_humidity;BME280_pressure;Samples;Min_cycle;Max_cycle;Signal;HPM_P1;HPM_P2
2022/01/27 00:01:28;;;;;;;10.98;7.55;;;;;;;;;;4539958;28;20083;-77
2022/01/27 00:03:48;;;;;;;10.55;7.15;;;;;;;;;;4524806;28;20549;-76
2022/01/27 00:06:07;;;;;;;10.18;7.32;;;;;;;;;;4523321;28;20064;-76
2022/01/27 00:08:25;;;;;;;10.23;7.13;;;;;;;;;;4524540;28;20040;-76
2022/01/27 00:12:51;;;;;;;10.95;6.72;;;;;;;;;;4523099;28;21184;-76
2022/01/27 00:15:14;;;;;;;9.45;6.35;;;;;;;;;;4527991;28;20037;-77
2022/01/27 00:17:30;;;;;;;9.50;6.50;;;;;;;;;;4523970;28;20030;-77
2022/01/27 00:19:42;;;;;;;9.50;6.80;;;;;;;;;;4524901;28;20659;-76
2022/01/27 00:21:52;;;;;;;9.43;6.50;;;;;;;;;;4521965;28;20576;-77
2022/01/27 00:24:03;;;;;;;9.07;5.57;;;;;;;;;;4522881;28;20052;-76
2022/01/27 00:26:15;;;;;;;9.15;6.40;;;;;;;;;;4523704;28;20842;-76
2022/01/27 00:28:25;;;;;;;9.07;6.30;;;;;;;;;;4526408;28;20112;-76
2022/01/27 00:30:39;;;;;;;9.77;6.53;;;;;;;;;;4524366;28;20021;-77
2022/01/27 00:32:50;;;;;;;9.85;6.32;;;;;;;;;;4524529;28;20029;-76
2022/01/27 00:35:01;;;;;;;8.90;6.30;;;;;;;;;;4524905;28;22354;-77
2022/01/27 00:37:11;;;;;;;9.10;6.25;;;;;;;;;;4526097;28;20021;-77
2022/01/27 00:39:21;;;;;;;11.80;7.13;;;;;;;;;;4526718;28;20048;-76
2022/01/27 00:41:32;;;;;;;9.80;6.70;;;;;;;;;;4532533;28;45395;-77
2022/01/27 00:43:43;;;;;;;9.30;6.17;;;;;;;;;;4507222;28;20581;-76
2022/01/27 00:45:54;;;;;;;9.75;6.57;;;;;;;;;;4526244;28;20029;-77
2022/01/27 00:48:05;;;;;;;8.83;6.67;;;;;;;;;;4524703;28;20045;-76
2022/01/27 00:50:17;;;;;;;10.90;7.38;;;;;;;;;;4526393;28;20030;-76
2022/01/27 00:52:36;;;;;;;10.25;7.25;;;;;;;;;;4526113;28;20470;-77
2022/01/27 00:54:47;;;;;;;10.05;7.13;;;;;;;;;;4529125;28;20025;-77
2022/01/27 00:57:07;;;;;;;10.63;7.23;;;;;;;;;;4526439;28;20025;-77
2022/01/27 01:01:40;;;;;;;10.38;7.00;;;;;;;;;;4526792;28;20046;-77
2022/01/27 01:03:53;;;;;;;11.02;7.68;;;;;;;;;;4524980;28;20100;-76
2022/01/27 01:06:19;;;;;;;11.23;7.80;;;;;;;;;;4523972;28;20736;-77
2022/01/27 01:15:37;;;;;;;11.30;8.37;;;;;;;;;;4533195;28;20025;-75
2022/01/27 01:34:43;;;;;;;12.48;9.13;;;;;;;;;;4507010;28;20084;-75
2022/01/27 01:36:57;;;;;;;14.13;9.50;;;;;;;;;;4524916;28;20306;-75
2022/01/27 01:39:07;;;;;;;12.38;8.80;;;;;;;;;;4527230;28;20060;-74
2022/01/27 01:41:17;;;;;;;13.27;9.23;;;;;;;;;;4524078;28;20030;-75
2022/01/27 01:43:28;;;;;;;12.70;8.83;;;;;;;;;;4522990;28;27347;-75
2022/01/27 01:45:39;;;;;;;12.68;9.38;;;;;;;;;;4532766;28;20037;-75
2022/01/27 01:47:51;;;;;;;14.10;9.63;;;;;;;;;;4524147;28;40032;-74
2022/01/27 01:50:03;;;;;;;13.57;9.75;;;;;;;;;;4525400;28;20577;-75
2022/01/27 01:52:14;;;;;;;14.73;10.13;;;;;;;;;;4531220;28;20034;-74
2022/01/27 01:54:24;;;;;;;12.67;9.70;;;;;;;;;;4523401;28;20572;-76
2022/01/27 01:56:36;;;;;;;13.73;9.57;;;;;;;;;;4525218;28;20025;-75
2022/01/27 01:58:46;;;;;;;14.13;10.10;;;;;;;;;;4523995;28;20806;-75
2022/01/27 02:00:57;;;;;;;12.70;9.37;;;;;;;;;;4523355;28;20212;-75
2022/01/27 02:03:07;;;;;;;12.53;8.93;;;;;;;;;;4522855;28;26924;-74
2022/01/27 02:05:25;;;;;;;12.63;8.90;;;;;;;;;;4522559;28;20481;-75
2022/01/27 02:07:56;;;;;;;12.25;9.02;;;;;;;;;;4522724;28;20231;-75
2022/01/27 02:10:32;;;;;;;12.97;9.57;;;;;;;;;;4514106;28;20062;-75
2022/01/27 02:20:20;;;;;;;13.23;9.82;;;;;;;;;;4506089;28;20072;-75
2022/01/27 02:22:30;;;;;;;13.33;9.93;;;;;;;;;;4525596;28;22158;-75
2022/01/27 02:24:41;;;;;;;14.77;10.20;;;;;;;;;;4523478;28;43509;-75
2022/01/27 02:26:52;;;;;;;13.80;10.23;;;;;;;;;;4524970;28;20574;-74
2022/01/27 02:29:02;;;;;;;13.70;10.00;;;;;;;;;;4509589;28;20050;-75
2022/01/27 02:31:13;;;;;;;14.67;10.67;;;;;;;;;;4523385;28;43837;-75
2022/01/27 02:33:33;;;;;;;13.27;10.43;;;;;;;;;;4520743;28;37776;-74
2022/01/27 02:35:43;;;;;;;14.18;11.18;;;;;;;;;;4523260;28;20054;-75
2022/01/27 02:37:54;;;;;;;13.70;10.30;;;;;;;;;;4523438;28;30214;-74
2022/01/27 02:40:05;;;;;;;13.73;10.13;;;;;;;;;;4522106;28;20074;-76
2022/01/27 02:42:16;;;;;;;12.52;10.30;;;;;;;;;;4523476;28;20033;-75
2022/01/27 02:44:45;;;;;;;13.73;10.05;;;;;;;;;;4522929;28;21009;-75
2022/01/27 02:46:56;;;;;;;14.70;10.85;;;;;;;;;;4521726;28;20100;-74
2022/01/27 02:49:06;;;;;;;15.37;11.57;;;;;;;;;;4524938;28;20025;-75
2022/01/27 02:51:16;;;;;;;14.70;11.23;;;;;;;;;;4530984;28;36042;-75
2022/01/27 02:53:27;;;;;;;14.57;11.37;;;;;;;;;;4524046;28;37267;-75
2022/01/27 02:55:37;;;;;;;13.57;10.50;;;;;;;;;;4525568;28;26394;-76
2022/01/27 02:57:48;;;;;;;13.87;10.67;;;;;;;;;;4525131;28;20024;-74
2022/01/27 02:59:58;;;;;;;13.90;10.57;;;;;;;;;;4528752;28;20025;-75
2022/01/27 03:02:09;;;;;;;13.77;10.23;;;;;;;;;;4525632;28;20531;-76
2022/01/27 03:04:20;;;;;;;12.57;10.17;;;;;;;;;;4525824;28;44470;-75
2022/01/27 03:06:30;;;;;;;13.48;10.27;;;;;;;;;;4518741;28;20033;-75
2022/01/27 03:08:41;;;;;;;13.13;10.07;;;;;;;;;;4527844;28;20025;-74
2022/01/27 03:11:04;;;;;;;13.70;9.83;;;;;;;;;;4525022;28;38695;-75
2022/01/27 03:13:15;;;;;;;12.65;9.48;;;;;;;;;;4528315;28;20041;-74
2022/01/27 03:15:27;;;;;;;12.82;9.73;;;;;;;;;;4534595;28;20025;-74
2022/01/27 03:17:39;;;;;;;12.95;9.85;;;;;;;;;;4526822;28;20238;-75
2022/01/27 03:19:51;;;;;;;13.13;9.73;;;;;;;;;;4525927;28;20029;-75
2022/01/27 03:22:03;;;;;;;13.05;9.88;;;;;;;;;;4525593;28;20190;-75
2022/01/27 03:24:13;;;;;;;;;;;;;;;;;;4527038;28;20037;-75
2022/01/27 03:26:24;;;;;;;13.13;9.88;;;;;;;;;;4526361;28;19915;-75
2022/01/27 03:28:35;;;;;;;13.40;9.85;;;;;;;;;;4526955;28;20183;-75
2022/01/27 03:30:45;;;;;;;13.50;9.53;;;;;;;;;;4525648;28;20120;-75
2022/01/27 03:32:56;;;;;;;12.70;9.53;;;;;;;;;;4526697;28;27999;-75
2022/01/27 03:35:06;;;;;;;13.53;9.80;;;;;;;;;;4524398;28;43103;-75
2022/01/27 03:37:17;;;;;;;13.77;9.93;;;;;;;;;;4527221;28;20040;-75
2022/01/27 03:39:27;;;;;;;12.40;9.10;;;;;;;;;;4526054;28;20040;-75
2022/01/27 03:41:39;;;;;;;13.10;9.30;;;;;;;;;;4527594;28;20048;-76
2022/01/27 03:43:51;;;;;;;14.10;10.15;;;;;;;;;;4525182;28;21243;-74
2022/01/27 03:46:02;;;;;;;12.18;9.15;;;;;;;;;;4525523;28;20669;-75
2022/01/27 03:48:12;;;;;;;13.63;9.65;;;;;;;;;;4526731;28;20033;-75
2022/01/27 03:50:23;;;;;;;13.20;9.50;;;;;;;;;;4525227;28;20033;-75
2022/01/27 03:52:33;;;;;;;12.87;9.50;;;;;;;;;;4525991;28;31386;-75
2022/01/27 03:54:43;;;;;;;12.50;9.37;;;;;;;;;;4524767;28;34740;-75
2022/01/27 03:56:54;;;;;;;13.93;9.67;;;;;;;;;;4525202;28;32516;-75
2022/01/27 03:59:04;;;;;;;12.90;9.30;;;;;;;;;;4527394;28;20028;-75
2022/01/27 04:01:15;;;;;;;12.87;9.57;;;;;;;;;;4529988;28;28224;-75
2022/01/27 04:03:28;;;;;;;13.17;9.40;;;;;;;;;;4528161;28;20025;-75
2022/01/27 04:05:42;;;;;;;13.00;9.20;;;;;;;;;;4525315;28;20030;-75
2022/01/27 04:07:57;;;;;;;12.77;9.30;;;;;;;;;;4533117;28;20021;-75
2022/01/27 04:10:08;;;;;;;12.00;8.60;;;;;;;;;;4525335;28;20061;-76
2022/01/27 04:12:18;;;;;;;13.40;9.55;;;;;;;;;;4526409;28;20112;-75
2022/01/27 04:14:28;;;;;;;12.37;8.87;;;;;;;;;;4533976;28;20528;-74
2022/01/27 04:16:39;;;;;;;12.13;8.83;;;;;;;;;;4524793;28;25395;-75
2022/01/27 04:18:49;;;;;;;13.03;9.17;;;;;;;;;;4526714;28;20033;-75
2022/01/27 04:21:00;;;;;;;12.40;9.17;;;;;;;;;;4527138;28;20029;-75
2022/01/27 04:23:10;;;;;;;14.17;9.57;;;;;;;;;;4526490;28;20174;-77
2022/01/27 04:25:21;;;;;;;12.20;8.97;;;;;;;;;;4526885;28;20029;-76
2022/01/27 04:27:35;;;;;;;12.73;9.40;;;;;;;;;;4525577;28;20030;-76
2022/01/27 04:29:45;;;;;;;12.85;9.45;;;;;;;;;;4524871;28;20176;-76
2022/01/27 04:31:56;;;;;;;13.30;9.70;;;;;;;;;;4525902;28;20781;-76
2022/01/27 04:34:07;;;;;;;12.83;9.13;;;;;;;;;;4527291;28;20477;-76
2022/01/27 04:36:24;;;;;;;12.90;8.90;;;;;;;;;;4526989;28;20029;-77
2022/01/27 04:45:27;;;;;;;11.90;9.07;;;;;;;;;;4524341;28;20108;-79
2022/01/27 04:47:43;;;;;;;11.70;8.45;;;;;;;;;;4525820;28;20051;-78
2022/01/27 04:49:53;;;;;;;12.88;9.77;;;;;;;;;;4527014;28;20033;-79
2022/01/27 04:52:05;;;;;;;12.87;9.00;;;;;;;;;;4526057;28;20343;-79
2022/01/27 04:54:34;;;;;;;13.07;9.40;;;;;;;;;;4526361;28;21223;-79
2022/01/27 04:56:45;;;;;;;13.88;9.02;;;;;;;;;;4527019;28;20026;-79
2022/01/27 04:59:00;;;;;;;12.53;9.30;;;;;;;;;;4525179;28;20470;-79
2022/01/27 05:01:10;;;;;;;13.18;9.75;;;;;;;;;;4526111;28;20599;-79
2022/01/27 05:03:32;;;;;;;13.23;9.23;;;;;;;;;;4524356;28;20025;-79
2022/01/27 05:05:42;;;;;;;;;;;;;;;;;;4526025;28;20813;-79
2022/01/27 05:07:59;;;;;;;12.18;8.75;;;;;;;;;;4524869;28;20016;-79
2022/01/27 05:10:13;;;;;;;12.35;8.90;;;;;;;;;;4524924;28;20847;-78
2022/01/27 05:12:36;;;;;;;12.98;8.98;;;;;;;;;;4523699;28;20025;-79
2022/01/27 05:14:46;;;;;;;12.55;8.90;;;;;;;;;;4523671;28;20104;-79
2022/01/27 05:16:57;;;;;;;12.33;8.40;;;;;;;;;;4522908;28;20087;-79
2022/01/27 05:19:07;;;;;;;13.00;8.70;;;;;;;;;;4525480;28;34941;-79
2022/01/27 05:21:17;;;;;;;11.37;8.17;;;;;;;;;;4539438;28;26817;-79
2022/01/27 05:23:28;;;;;;;11.63;8.60;;;;;;;;;;4525881;28;20252;-79
2022/01/27 05:25:39;;;;;;;12.17;9.10;;;;;;;;;;4525341;28;20527;-79
2022/01/27 05:27:49;;;;;;;10.80;8.20;;;;;;;;;;4524217;28;20115;-80
2022/01/27 05:29:59;;;;;;;13.10;8.73;;;;;;;;;;4525115;28;33448;-79
2022/01/27 05:32:10;;;;;;;12.70;8.37;;;;;;;;;;4525372;28;33543;-79
2022/01/27 05:34:20;;;;;;;12.83;9.07;;;;;;;;;;4525328;28;26402;-79
2022/01/27 05:36:31;;;;;;;12.73;8.80;;;;;;;;;;4523382;28;24696;-79
2022/01/27 05:38:42;;;;;;;12.57;8.68;;;;;;;;;;4527058;28;20040;-80
2022/01/27 05:40:52;;;;;;;12.03;8.70;;;;;;;;;;4525799;28;29458;-79
2022/01/27 05:43:02;;;;;;;11.97;8.53;;;;;;;;;;4525673;28;23102;-79
2022/01/27 05:45:13;;;;;;;12.73;8.73;;;;;;;;;;4525074;28;20136;-79
2022/01/27 05:47:23;;;;;;;11.83;8.33;;;;;;;;;;4527076;28;20103;-79
2022/01/27 05:49:34;;;;;;;11.53;8.43;;;;;;;;;;4527899;28;20038;-79
2022/01/27 05:51:44;;;;;;;11.73;8.63;;;;;;;;;;4524799;28;20045;-79
2022/01/27 05:53:54;;;;;;;11.87;8.17;;;;;;;;;;4526104;28;30928;-80
2022/01/27 05:56:05;;;;;;;11.93;8.53;;;;;;;;;;4525001;28;43390;-80
2022/01/27 05:58:16;;;;;;;12.90;8.40;;;;;;;;;;4527758;28;20065;-80
2022/01/27 06:00:27;;;;;;;11.60;7.73;;;;;;;;;;4525232;28;20179;-80
2022/01/27 06:02:38;;;;;;;12.10;8.48;;;;;;;;;;4525905;28;20035;-80
2022/01/27 06:04:49;;;;;;;12.63;8.88;;;;;;;;;;4525364;28;20581;-80
2022/01/27 06:06:59;;;;;;;11.87;8.20;;;;;;;;;;4526680;28;20041;-80
2022/01/27 06:09:09;;;;;;;11.70;8.10;;;;;;;;;;4526148;28;20077;-81
2022/01/27 06:11:20;;;;;;;11.63;8.10;;;;;;;;;;4524458;28;22226;-80
2022/01/27 06:13:30;;;;;;;12.30;8.23;;;;;;;;;;4526806;28;20120;-81
2022/01/27 06:15:41;;;;;;;11.57;8.00;;;;;;;;;;4525944;28;20025;-81
2022/01/27 06:17:52;;;;;;;11.60;8.13;;;;;;;;;;4524809;28;28422;-80
2022/01/27 06:20:03;;;;;;;11.82;7.93;;;;;;;;;;4525582;28;20034;-80
2022/01/27 06:22:14;;;;;;;10.85;7.88;;;;;;;;;;4524830;28;20256;-81
2022/01/27 06:24:25;;;;;;;11.15;8.13;;;;;;;;;;4534748;28;20973;-80
2022/01/27 06:26:35;;;;;;;12.90;8.50;;;;;;;;;;4526475;28;20037;-80
2022/01/27 06:28:45;;;;;;;11.27;7.73;;;;;;;;;;4527445;28;26763;-81
2022/01/27 06:30:56;;;;;;;11.47;7.73;;;;;;;;;;4528632;28;25240;-79
2022/01/27 06:33:07;;;;;;;11.63;7.80;;;;;;;;;;4527270;28;20030;-80
2022/01/27 06:35:18;;;;;;;11.27;7.78;;;;;;;;;;4529857;28;20065;-80
2022/01/27 06:37:28;;;;;;;11.03;7.93;;;;;;;;;;4528696;28;20033;-80
2022/01/27 06:39:38;;;;;;;10.57;7.20;;;;;;;;;;4525709;28;42267;-80
2022/01/27 06:41:49;;;;;;;11.30;7.87;;;;;;;;;;4526813;28;21234;-80
2022/01/27 06:44:02;;;;;;;12.17;8.00;;;;;;;;;;4528002;28;20033;-80
2022/01/27 06:46:12;;;;;;;10.15;7.18;;;;;;;;;;4527781;28;20059;-80
2022/01/27 06:48:22;;;;;;;10.10;7.20;;;;;;;;;;4526469;28;20137;-80
2022/01/27 06:50:36;;;;;;;10.53;7.00;;;;;;;;;;4526520;28;20533;-80
2022/01/27 06:52:46;;;;;;;10.93;7.55;;;;;;;;;;4526430;28;20030;-80
2022/01/27 06:54:57;;;;;;;10.23;6.90;;;;;;;;;;4528285;28;20151;-80
2022/01/27 06:57:07;;;;;;;9.33;6.40;;;;;;;;;;4525986;28;20028;-79
2022/01/27 06:59:18;;;;;;;10.57;7.20;;;;;;;;;;4528725;28;21155;-80
2022/01/27 07:01:28;;;;;;;11.53;7.53;;;;;;;;;;4527712;28;20049;-80
2022/01/27 07:03:39;;;;;;;10.33;7.50;;;;;;;;;;4520816;28;20052;-80
2022/01/27 07:05:49;;;;;;;10.40;7.37;;;;;;;;;;4526067;28;26875;-80
2022/01/27 07:08:00;;;;;;;12.30;8.27;;;;;;;;;;4528922;28;20075;-80
2022/01/27 07:10:11;;;;;;;10.80;7.68;;;;;;;;;;4526611;28;20022;-80
2022/01/27 07:12:22;;;;;;;12.23;7.97;;;;;;;;;;4527194;28;20038;-80
2022/01/27 07:14:33;;;;;;;15.35;10.32;;;;;;;;;;4525737;28;20044;-80
2022/01/27 07:16:43;;;;;;;11.00;7.45;;;;;;;;;;4526265;28;20141;-80
2022/01/27 07:18:55;;;;;;;11.23;6.77;;;;;;;;;;4535178;28;20525;-81
2022/01/27 07:21:05;;;;;;;9.75;6.15;;;;;;;;;;4528113;28;20079;-80
2022/01/27 07:23:16;;;;;;;10.20;6.40;;;;;;;;;;4527739;28;30404;-80
2022/01/27 07:25:26;;;;;;;10.50;6.83;;;;;;;;;;4525501;28;20021;-80
2022/01/27 07:27:37;;;;;;;10.27;6.47;;;;;;;;;;4525480;28;22545;-80
2022/01/27 07:29:47;;;;;;;10.07;6.60;;;;;;;;;;4525554;28;20129;-80
2022/01/27 07:31:57;;;;;;;9.80;6.47;;;;;;;;;;4534101;28;20393;-80
2022/01/27 07:34:08;;;;;;;10.33;6.87;;;;;;;;;;4526947;28;20021;-81
2022/01/27 07:36:19;;;;;;;10.60;6.53;;;;;;;;;;4524088;28;35654;-80
2022/01/27 07:38:29;;;;;;;10.82;7.13;;;;;;;;;;4527090;28;20037;-80
2022/01/27 07:40:40;;;;;;;12.30;7.07;;;;;;;;;;4525857;28;20060;-79
2022/01/27 07:42:50;;;;;;;9.63;6.87;;;;;;;;;;4525137;28;20750;-80
2022/01/27 07:45:01;;;;;;;11.00;6.67;;;;;;;;;;4527566;28;20137;-79
2022/01/27 07:47:12;;;;;;;10.50;6.33;;;;;;;;;;4525690;28;20033;-80
2022/01/27 07:49:22;;;;;;;10.20;6.50;;;;;;;;;;4526334;28;20021;-80
2022/01/27 07:51:33;;;;;;;10.67;7.00;;;;;;;;;;4525490;28;20284;-81
2022/01/27 07:53:43;;;;;;;10.00;6.37;;;;;;;;;;4526261;28;20099;-80
2022/01/27 07:55:54;;;;;;;9.10;6.17;;;;;;;;;;4524363;28;20384;-79
2022/01/27 07:58:04;;;;;;;10.57;6.77;;;;;;;;;;4525489;28;20036;-79
2022/01/27 08:00:15;;;;;;;10.27;6.67;;;;;;;;;;4522717;28;20049;-80
2022/01/27 08:02:25;;;;;;;11.10;7.73;;;;;;;;;;4514768;28;20034;-80
2022/01/27 08:04:36;;;;;;;9.57;6.73;;;;;;;;;;4526959;28;32768;-81
2022/01/27 08:06:46;;;;;;;10.07;7.03;;;;;;;;;;4523344;28;20026;-81
2022/01/27 08:08:57;;;;;;;9.70;6.57;;;;;;;;;;4524487;28;33433;-80
2022/01/27 08:11:07;;;;;;;10.20;6.90;;;;;;;;;;4523406;28;43192;-81
2022/01/27 08:13:17;;;;;;;9.80;6.47;;;;;;;;;;4530162;28;20033;-80
2022/01/27 08:15:28;;;;;;;10.47;6.60;;;;;;;;;;4524135;28;20620;-81
2022/01/27 08:17:39;;;;;;;9.30;6.13;;;;;;;;;;4525378;28;20347;-80
2022/01/27 08:19:49;;;;;;;9.50;6.43;;;;;;;;;;4526563;28;20030;-79
2022/01/27 08:21:59;;;;;;;10.17;6.57;;;;;;;;;;4523566;28;20087;-81
2022/01/27 08:24:11;;;;;;;10.23;6.90;;;;;;;;;;4524460;28;20741;-80
2022/01/27 08:26:37;;;;;;;9.98;6.75;;;;;;;;;;4525004;28;20035;-80
2022/01/27 08:28:56;;;;;;;10.27;6.60;;;;;;;;;;4524570;28;20025;-80
2022/01/27 08:31:07;;;;;;;10.38;7.20;;;;;;;;;;4525487;28;20095;-80
2022/01/27 08:33:19;;;;;;;10.13;6.57;;;;;;;;;;4518907;28;20087;-80
2022/01/27 08:35:29;;;;;;;;;;;;;;;;;;4526139;28;20069;-80
2022/01/27 08:37:40;;;;;;;9.45;6.40;;;;;;;;;;4523280;28;19909;-80
2022/01/27 08:39:51;;;;;;;9.87;6.53;;;;;;;;;;4523023;28;20041;-80
2022/01/27 08:42:02;;;;;;;10.05;6.30;;;;;;;;;;4524614;28;20679;-78
2022/01/27 08:44:13;;;;;;;10.20;6.45;;;;;;;;;;4524363;28;20029;-79
2022/01/27 08:46:23;;;;;;;10.07;6.40;;;;;;;;;;4522614;28;25158;-80
2022/01/27 08:48:38;;;;;;;10.47;6.87;;;;;;;;;;4523099;28;43282;-79
2022/01/27 08:50:59;;;;;;;8.95;6.35;;;;;;;;;;4525153;28;20034;-79
2022/01/27 08:53:09;;;;;;;10.18;7.15;;;;;;;;;;4524749;28;20104;-79
2022/01/27 08:55:21;;;;;;;10.87;7.20;;;;;;;;;;4522578;28;25252;-78
2022/01/27 08:57:32;;;;;;;9.95;6.65;;;;;;;;;;4523600;28;20025;-78
2022/01/27 08:59:42;;;;;;;10.77;6.73;;;;;;;;;;4522000;28;20037;-78
2022/01/27 09:01:53;;;;;;;8.53;5.83;;;;;;;;;;4508461;28;20501;-78
2022/01/27 09:04:04;;;;;;;9.47;6.53;;;;;;;;;;4523001;28;36210;-78
2022/01/27 09:06:14;;;;;;;9.80;6.43;;;;;;;;;;4520815;28;20069;-79
2022/01/27 09:08:27;;;;;;;10.60;7.00;;;;;;;;;;4523690;28;20113;-80
2022/01/27 09:10:37;;;;;;;9.85;6.30;;;;;;;;;;4524664;28;20929;-80
2022/01/27 09:12:48;;;;;;;9.90;6.40;;;;;;;;;;4523857;28;20068;-79
2022/01/27 09:14:59;;;;;;;9.73;6.30;;;;;;;;;;4522547;28;20025;-79
2022/01/27 09:17:10;;;;;;;10.50;6.45;;;;;;;;;;4525247;28;20113;-79
2022/01/27 09:19:21;;;;;;;9.10;5.50;;;;;;;;;;4526008;28;20018;-78
2022/01/27 09:21:43;;;;;;;7.93;5.40;;;;;;;;;;4524593;28;20037;-78
2022/01/27 09:23:54;;;;;;;9.10;5.78;;;;;;;;;;4524248;28;20284;-78
2022/01/27 09:26:09;;;;;;;8.77;5.78;;;;;;;;;;4526575;28;20026;-77
2022/01/27 09:28:20;;;;;;;7.97;5.05;;;;;;;;;;4525801;28;20032;-79
2022/01/27 09:30:33;;;;;;;8.60;5.57;;;;;;;;;;4532824;28;20087;-81
2022/01/27 09:32:44;;;;;;;7.93;5.13;;;;;;;;;;4524815;28;20863;-72
2022/01/27 09:34:54;;;;;;;9.20;5.50;;;;;;;;;;4521168;28;20040;-74
2022/01/27 09:37:04;;;;;;;7.87;5.00;;;;;;;;;;4523976;28;20032;-77
2022/01/27 09:39:16;;;;;;;7.87;5.30;;;;;;;;;;4523752;28;20374;-73
2022/01/27 09:41:27;;;;;;;8.88;6.22;;;;;;;;;;4524636;28;20021;-76
2022/01/27 09:43:38;;;;;;;8.75;5.47;;;;;;;;;;4524890;28;20588;-77
2022/01/27 09:45:51;;;;;;;8.83;5.13;;;;;;;;;;4515816;28;20029;-75
2022/01/27 09:48:11;;;;;;;7.75;4.68;;;;;;;;;;4523719;28;20674;-75
2022/01/27 09:52:54;;;;;;;6.93;4.35;;;;;;;;;;4522969;28;20025;-74
2022/01/27 09:55:04;;;;;;;6.07;4.10;;;;;;;;;;4532230;28;20033;-79
2022/01/27 09:57:17;;;;;;;6.10;4.47;;;;;;;;;;4511033;28;20036;-72
2022/01/27 09:59:27;;;;;;;6.40;4.07;;;;;;;;;;4491078;28;20649;-73
2022/01/27 10:01:51;;;;;;;6.40;4.00;;;;;;;;;;4506471;28;20045;-73
2022/01/27 10:04:05;;;;;;;6.10;3.67;;;;;;;;;;4506175;28;20022;-67
2022/01/27 10:06:18;;;;;;;6.10;3.67;;;;;;;;;;4504507;28;20045;-66
2022/01/27 10:08:28;;;;;;;5.50;3.83;;;;;;;;;;4503349;28;20026;-66
2022/01/27 10:10:42;;;;;;;6.10;3.63;;;;;;;;;;4503581;28;22233;-66
2022/01/27 10:12:54;;;;;;;5.25;3.67;;;;;;;;;;4517284;28;20025;-66
2022/01/27 10:15:11;;;;;;;5.50;3.75;;;;;;;;;;4503681;28;20038;-70
2022/01/27 10:17:22;;;;;;;6.18;3.60;;;;;;;;;;4496428;28;20029;-70
2022/01/27 10:19:35;;;;;;;5.53;3.60;;;;;;;;;;4504027;28;20037;-70
2022/01/27 10:21:47;;;;;;;5.43;3.72;;;;;;;;;;4504467;28;20080;-70
2022/01/27 10:24:00;;;;;;;;;;;;;;;;;;4507946;28;20133;-70
2022/01/27 10:26:23;;;;;;;5.15;3.45;;;;;;;;;;4504202;28;19913;-72
2022/01/27 10:28:49;;;;;;;5.72;3.30;;;;;;;;;;4505390;28;20077;-71
2022/01/27 10:31:12;;;;;;;4.88;2.97;;;;;;;;;;4512259;28;20128;-73
2022/01/27 10:33:22;;;;;;;3.75;2.80;;;;;;;;;;4502257;28;20037;-67
2022/01/27 10:35:32;;;;;;;5.03;3.13;;;;;;;;;;4501089;28;20037;-71
2022/01/27 10:38:12;;;;;;;5.15;3.20;;;;;;;;;;4505708;28;20029;-71
2022/01/27 10:40:46;;;;;;;5.07;3.10;;;;;;;;;;4492035;28;20133;-72
2022/01/27 10:43:04;;;;;;;4.65;3.20;;;;;;;;;;4504653;28;20127;-72
2022/01/27 10:45:17;;;;;;;5.05;3.22;;;;;;;;;;4506072;28;20040;-68
2022/01/27 10:47:31;;;;;;;5.05;3.10;;;;;;;;;;4506075;28;20117;-81
2022/01/27 10:49:50;;;;;;;5.20;3.05;;;;;;;;;;4504617;28;20038;-64
2022/01/27 10:52:00;;;;;;;4.18;2.67;;;;;;;;;;4505813;28;20038;-63
2022/01/27 10:54:19;;;;;;;3.57;2.47;;;;;;;;;;4505019;28;20045;-62
2022/01/27 10:56:35;;;;;;;3.92;2.90;;;;;;;;;;4506655;28;20042;-63
2022/01/27 10:58:45;;;;;;;4.63;3.25;;;;;;;;;;4505043;28;20036;-64
2022/01/27 11:00:58;;;;;;;5.13;3.40;;;;;;;;;;4505222;28;20413;-62
2022/01/27 11:03:09;;;;;;;3.55;2.30;;;;;;;;;;4504032;28;20097;-68
2022/01/27 11:05:22;;;;;;;3.15;2.53;;;;;;;;;;4485510;28;20053;-64
2022/01/27 11:07:32;;;;;;;3.03;2.30;;;;;;;;;;4503979;28;20188;-69
2022/01/27 11:09:44;;;;;;;2.70;2.00;;;;;;;;;;4506332;28;20068;-69
2022/01/27 11:11:56;;;;;;;3.25;2.40;;;;;;;;;;4508025;28;20037;-65
2022/01/27 11:14:07;;;;;;;3.50;2.40;;;;;;;;;;4504557;28;20034;-67
2022/01/27 11:16:21;;;;;;;2.60;2.10;;;;;;;;;;4506118;28;20030;-68
2022/01/27 11:18:32;;;;;;;2.97;2.17;;;;;;;;;;4507343;28;20029;-67
2022/01/27 11:20:57;;;;;;;2.60;1.80;;;;;;;;;;4507775;28;34069;-67
2022/01/27 11:23:25;;;;;;;2.65;1.90;;;;;;;;;;4507089;28;20069;-68
2022/01/27 11:27:47;;;;;;;;;;;;;;;;;;4508393;28;20029;-70
2022/01/27 11:30:02;;;;;;;2.85;1.63;;;;;;;;;;4506508;28;19956;-71
2022/01/27 11:32:28;;;;;;;2.30;1.65;;;;;;;;;;4509024;28;20030;-74
2022/01/27 11:34:51;;;;;;;2.35;1.63;;;;;;;;;;4507431;28;20033;-80
2022/01/27 11:37:05;;;;;;;2.38;1.70;;;;;;;;;;4508686;28;20038;-67
2022/01/27 11:39:17;;;;;;;2.08;1.70;;;;;;;;;;4507993;28;20649;-70
2022/01/27 11:41:42;;;;;;;2.30;1.70;;;;;;;;;;4506678;28;21233;-79
2022/01/27 11:44:22;;;;;;;2.00;1.60;;;;;;;;;;4509081;28;20025;-78
2022/01/27 11:46:33;;;;;;;2.17;1.70;;;;;;;;;;4508499;28;20048;-69
2022/01/27 11:48:43;;;;;;;1.57;1.30;;;;;;;;;;4510176;28;20048;-74
2022/01/27 11:51:03;;;;;;;2.47;1.57;;;;;;;;;;4510843;28;20041;-72
2022/01/27 11:53:27;;;;;;;2.03;1.45;;;;;;;;;;4507430;28;20034;-72
2022/01/27 11:55:44;;;;;;;3.25;1.88;;;;;;;;;;4506699;28;20037;-68
2022/01/27 11:57:55;;;;;;;2.05;1.50;;;;;;;;;;4505249;28;20041;-74
2022/01/27 12:00:14;;;;;;;1.65;1.40;;;;;;;;;;4507297;28;20498;-68
2022/01/27 12:02:25;;;;;;;2.05;1.63;;;;;;;;;;4515974;28;20104;-71
2022/01/27 12:04:36;;;;;;;1.95;1.48;;;;;;;;;;4507386;28;20751;-76
2022/01/27 12:06:50;;;;;;;1.70;1.40;;;;;;;;;;4513481;28;22864;-69
2022/01/27 12:09:22;;;;;;;1.88;1.52;;;;;;;;;;4506974;28;20026;-68
2022/01/27 12:11:49;;;;;;;1.85;1.48;;;;;;;;;;4506630;28;20077;-66
2022/01/27 12:14:01;;;;;;;1.67;1.40;;;;;;;;;;4504142;28;20101;-63
2022/01/27 12:18:38;;;;;;;1.35;1.10;;;;;;;;;;4506130;28;20834;-64
2022/01/27 12:20:49;;;;;;;1.33;1.10;;;;;;;;;;4514644;28;20655;-64
2022/01/27 12:23:01;;;;;;;1.53;1.37;;;;;;;;;;4507696;28;20206;-64
2022/01/27 12:25:12;;;;;;;2.20;1.50;;;;;;;;;;4506699;28;20127;-63
2022/01/27 12:27:24;;;;;;;1.70;1.50;;;;;;;;;;4506686;28;20177;-71
2022/01/27 12:29:35;;;;;;;;;;;;;;;;;;4506289;28;20022;-71
2022/01/27 12:31:46;;;;;;;1.70;1.40;;;;;;;;;;4521535;28;20055;-71
2022/01/27 12:33:56;;;;;;;1.10;1.00;;;;;;;;;;4490083;28;20030;-71
2022/01/27 12:36:06;;;;;;;1.27;1.03;;;;;;;;;;4504876;28;33661;-71
2022/01/27 12:38:17;;;;;;;1.10;1.00;;;;;;;;;;4503616;28;37457;-71
2022/01/27 12:40:30;;;;;;;1.43;1.13;;;;;;;;;;4508046;28;20114;-71
2022/01/27 12:42:58;;;;;;;2.30;1.15;;;;;;;;;;4506553;28;20044;-71
2022/01/27 12:45:13;;;;;;;1.58;1.00;;;;;;;;;;4504448;28;20106;-71
2022/01/27 12:47:24;;;;;;;1.52;1.33;;;;;;;;;;4514984;28;20040;-71
2022/01/27 12:49:50;;;;;;;1.30;1.17;;;;;;;;;;4506634;28;20109;-64
2022/01/27 12:52:01;;;;;;;1.45;1.10;;;;;;;;;;4506867;28;20025;-63
2022/01/27 12:54:11;;;;;;;1.20;1.10;;;;;;;;;;4504556;28;20029;-63
2022/01/27 12:56:22;;;;;;;1.47;1.20;;;;;;;;;;4506465;28;20698;-63
2022/01/27 12:58:32;;;;;;;1.73;1.30;;;;;;;;;;4504525;28;31805;-63
2022/01/27 13:00:44;;;;;;;1.77;1.10;;;;;;;;;;4505739;28;20722;-63
2022/01/27 13:03:01;;;;;;;1.27;1.10;;;;;;;;;;4506000;28;20067;-64
2022/01/27 13:05:11;;;;;;;1.42;1.15;;;;;;;;;;4506041;28;20026;-63
2022/01/27 13:07:23;;;;;;;1.53;1.20;;;;;;;;;;4505556;28;20466;-63
2022/01/27 13:09:34;;;;;;;1.27;1.10;;;;;;;;;;4510930;28;20032;-63
2022/01/27 13:11:46;;;;;;;1.77;1.35;;;;;;;;;;4514765;28;20049;-63
2022/01/27 13:14:06;;;;;;;1.95;1.27;;;;;;;;;;4507744;28;20829;-63
2022/01/27 13:16:21;;;;;;;1.77;1.50;;;;;;;;;;4506317;28;21440;-63
2022/01/27 13:18:41;;;;;;;1.48;1.20;;;;;;;;;;4505993;28;20049;-63
2022/01/27 13:20:56;;;;;;;2.05;1.60;;;;;;;;;;4505841;28;20062;-63
2022/01/27 13:25:55;;;;;;;1.60;1.40;;;;;;;;;;4505451;28;20109;-63
2022/01/27 13:28:17;;;;;;;1.55;1.38;;;;;;;;;;4503808;28;21056;-63
2022/01/27 13:30:27;;;;;;;2.00;1.50;;;;;;;;;;4504755;28;20597;-63
2022/01/27 13:32:38;;;;;;;1.33;1.23;;;;;;;;;;4506039;28;20137;-63
2022/01/27 13:34:49;;;;;;;1.77;1.23;;;;;;;;;;4507105;28;20021;-63
2022/01/27 13:37:02;;;;;;;2.45;1.65;;;;;;;;;;4506299;28;20044;-63
2022/01/27 13:39:35;;;;;;;1.60;1.50;;;;;;;;;;4503828;28;20097;-63
2022/01/27 13:41:45;;;;;;;2.25;1.70;;;;;;;;;;4504791;28;20648;-62
2022/01/27 13:44:06;;;;;;;2.00;1.80;;;;;;;;;;4505860;28;20026;-63
2022/01/27 13:46:38;;;;;;;2.53;1.60;;;;;;;;;;4506499;28;20033;-63
2022/01/27 13:48:48;;;;;;;;;;;;;;;;;;4507222;28;20034;-63
2022/01/27 13:50:59;;;;;;;2.25;1.70;;;;;;;;;;4505838;28;19905;-63
2022/01/27 13:53:10;;;;;;;1.63;1.50;;;;;;;;;;4505915;28;20722;-63
2022/01/27 13:55:22;;;;;;;2.30;1.37;;;;;;;;;;4504238;28;43361;-63
2022/01/27 13:57:35;;;;;;;1.50;1.40;;;;;;;;;;4504851;28;21252;-63
2022/01/27 14:00:00;;;;;;;1.83;1.52;;;;;;;;;;4505467;28;20044;-63
2022/01/27 14:02:19;;;;;;;2.08;1.70;;;;;;;;;;4507011;28;20931;-63
2022/01/27 14:04:43;;;;;;;2.00;1.80;;;;;;;;;;4505337;28;20588;-63